createdAt,value
2019-05-05T00:02:04.590Z,99.90
2019-05-05T00:04:46.300Z,99.80
2019-05-05T00:07:31.422Z,99.90
2019-05-05T00:10:04.607Z,99.80
2019-05-05T00:12:58.816Z,99.80
2019-05-05T00:16:07.495Z,99.70
2019-05-05T00:18:38.799Z,99.90
2019-05-05T00:21:10.127Z,99.90
2019-05-05T00:23:41.343Z,99.90
2019-05-05T00:26:12.353Z,99.80
2019-05-05T00:28:44.788Z,99.80
2019-05-05T00:31:17.331Z,99.70
2019-05-05T00:33:48.318Z,99.90
2019-05-05T00:36:19.546Z,99.90
2019-05-05T00:38:50.687Z,99.90
2019-05-05T00:41:21.978Z,99.90
2019-05-05T00:43:55.206Z,99.80
2019-05-05T00:46:41.035Z,99.90
2019-05-05T00:49:11.944Z,99.90
2019-05-05T00:51:44.328Z,99.90
2019-05-05T00:54:15.699Z,99.90
2019-05-05T00:56:46.940Z,99.90
2019-05-05T00:59:19.792Z,99.90
2019-05-05T01:02:15.071Z,99.90
2019-05-05T01:05:08.436Z,99.90
2019-05-05T01:07:39.765Z,99.90
2019-05-05T01:10:10.932Z,99.90
2019-05-05T01:12:42.355Z,99.90
2019-05-05T01:15:14.993Z,99.90
2019-05-05T01:17:46.120Z,99.90
2019-05-05T01:20:17.415Z,99.90
2019-05-05T01:22:48.735Z,99.90
2019-05-05T01:25:20.015Z,99.90
2019-05-05T01:27:51.149Z,99.90
2019-05-05T01:30:26.205Z,99.90
2019-05-05T01:33:05.376Z,99.90
2019-05-05T01:35:36.351Z,99.90
2019-05-05T01:38:14.243Z,99.90
2019-05-05T01:40:54.781Z,99.90
2019-05-05T01:43:26.195Z,99.90
2019-05-05T01:45:57.670Z,99.90
2019-05-05T01:48:28.979Z,99.90
2019-05-05T01:51:01.907Z,99.90
2019-05-05T01:53:34.739Z,99.90
2019-05-05T01:56:06.123Z,99.90
2019-05-05T01:58:37.596Z,99.90
2019-05-05T02:01:08.663Z,99.90
2019-05-05T02:03:39.673Z,99.90
2019-05-05T02:06:10.563Z,99.90
2019-05-05T02:08:41.870Z,99.90
2019-05-05T02:11:15.480Z,99.90
2019-05-05T02:13:46.128Z,99.90
2019-05-05T02:16:17.623Z,99.90
2019-05-05T02:18:48.870Z,99.90
2019-05-05T02:21:20.167Z,99.90
2019-05-05T02:23:51.348Z,99.90
2019-05-05T02:26:24.516Z,99.90
2019-05-05T02:29:14.215Z,99.90
2019-05-05T02:32:06.295Z,99.90
2019-05-05T02:34:41.208Z,99.90
2019-05-05T02:37:12.445Z,99.90
2019-05-05T02:39:50.471Z,99.90
2019-05-05T02:42:17.033Z,99.90
2019-05-05T02:44:48.750Z,99.90
2019-05-05T02:47:45.477Z,99.90
2019-05-05T02:50:17.589Z,99.90
2019-05-05T02:52:49.450Z,99.90
2019-05-05T02:55:23.488Z,99.90
2019-05-05T02:57:55.719Z,99.90
2019-05-05T03:00:45.480Z,99.90
2019-05-05T03:03:16.874Z,99.90
2019-05-05T03:05:48.195Z,99.90
2019-05-05T03:08:19.347Z,99.90
2019-05-05T03:10:50.832Z,99.90
2019-05-05T03:13:24.298Z,99.90
2019-05-05T03:16:15.741Z,99.90
2019-05-05T03:18:46.803Z,99.90
2019-05-05T03:21:19.723Z,99.90
2019-05-05T03:23:50.916Z,99.90
2019-05-05T03:26:23.402Z,99.90
2019-05-05T03:28:58.353Z,99.90
2019-05-05T03:31:29.500Z,99.90
2019-05-05T03:34:01.027Z,99.90
2019-05-05T03:36:33.966Z,99.90
2019-05-05T03:39:07.231Z,99.90
2019-05-05T03:41:49.339Z,99.90
2019-05-05T03:44:26.591Z,99.90
2019-05-05T03:46:57.586Z,99.90
2019-05-05T03:49:29.176Z,99.90
2019-05-05T03:52:00.773Z,99.90
2019-05-05T03:54:34.256Z,99.90
2019-05-05T03:57:08.375Z,99.90
2019-05-05T03:59:41.766Z,99.90
2019-05-05T04:02:27.847Z,99.90
2019-05-05T04:05:04.648Z,99.90
2019-05-05T04:07:36.809Z,99.90
2019-05-05T04:10:09.836Z,99.90
2019-05-05T04:12:43.495Z,99.90
2019-05-05T04:15:14.870Z,99.90
2019-05-05T04:18:00.115Z,99.90
2019-05-05T04:20:39.422Z,99.90
2019-05-05T04:23:10.601Z,99.90
2019-05-05T04:25:43.796Z,99.90
2019-05-05T04:28:14.367Z,99.90
2019-05-05T04:30:45.521Z,99.90
2019-05-05T04:33:16.676Z,99.90
2019-05-05T04:35:48.098Z,99.90
2019-05-05T04:38:19.251Z,99.90
2019-05-05T04:40:50.407Z,99.90
2019-05-05T04:43:24.100Z,99.90
2019-05-05T04:45:55.327Z,99.90
2019-05-05T04:48:34.472Z,99.90
2019-05-05T04:51:24.774Z,99.90
2019-05-05T04:54:16.643Z,99.90
2019-05-05T04:56:47.683Z,99.90
2019-05-05T04:59:18.896Z,99.90
2019-05-05T05:01:54.462Z,99.90
2019-05-05T05:04:44.122Z,99.90
2019-05-05T05:07:16.524Z,99.90
2019-05-05T05:09:47.703Z,99.90
2019-05-05T05:12:18.839Z,99.90
2019-05-05T05:14:50.139Z,99.90
2019-05-05T05:17:31.151Z,99.90
2019-05-05T05:20:03.751Z,99.90
2019-05-05T05:22:35.012Z,99.90
2019-05-05T05:25:05.942Z,99.90
2019-05-05T05:27:37.108Z,99.90
2019-05-05T05:30:08.547Z,99.90
2019-05-05T05:32:40.020Z,99.90
2019-05-05T05:35:25.498Z,99.90
2019-05-05T05:37:57.719Z,99.90
2019-05-05T05:41:01.852Z,99.90
2019-05-05T05:43:54.725Z,99.90
2019-05-05T05:46:44.046Z,99.90
2019-05-05T05:49:21.702Z,99.90
2019-05-05T05:51:53.865Z,99.90
2019-05-05T05:54:25.083Z,99.90
2019-05-05T05:56:56.423Z,99.90
2019-05-05T05:59:27.567Z,99.90
2019-05-05T06:02:09.132Z,99.90
2019-05-05T06:04:31.575Z,99.90
2019-05-05T06:07:04.100Z,99.90
2019-05-05T06:09:35.120Z,99.90
2019-05-05T06:12:06.023Z,99.90
2019-05-05T06:14:37.752Z,99.90
2019-05-05T06:17:08.920Z,99.90
2019-05-05T06:19:40.078Z,99.90
2019-05-05T06:22:11.013Z,99.90
2019-05-05T06:24:43.989Z,99.90
2019-05-05T06:27:15.639Z,99.90
2019-05-05T06:29:46.832Z,99.90
2019-05-05T06:32:18.259Z,99.90
2019-05-05T06:34:49.427Z,99.90
2019-05-05T06:37:20.424Z,99.90
2019-05-05T06:39:54.407Z,99.90
2019-05-05T06:42:34.165Z,99.90
2019-05-05T06:45:20.270Z,99.90
2019-05-05T06:47:51.436Z,99.90
2019-05-05T06:50:24.183Z,99.90
2019-05-05T06:52:55.263Z,99.90
2019-05-05T06:55:26.472Z,99.90
2019-05-05T06:57:57.382Z,99.90
2019-05-05T07:00:28.548Z,99.90
2019-05-05T07:02:59.695Z,99.90
2019-05-05T07:05:30.847Z,99.90
2019-05-05T07:08:04.249Z,99.90
2019-05-05T07:10:35.384Z,99.90
2019-05-05T07:13:06.286Z,99.90
2019-05-05T07:15:37.511Z,99.90
2019-05-05T07:18:08.813Z,99.90
2019-05-05T07:20:40.283Z,99.80
2019-05-05T07:23:11.529Z,98.80
2019-05-05T07:25:45.673Z,99.20
2019-05-05T07:28:15.507Z,99.10
2019-05-05T07:30:46.789Z,99.50
2019-05-05T07:33:18.050Z,99.80
2019-05-05T07:36:02.916Z,99.40
2019-05-05T07:38:30.515Z,99.30
2019-05-05T07:41:03.552Z,99.10
2019-05-05T07:43:34.528Z,98.00
2019-05-05T07:46:05.779Z,97.80
2019-05-05T07:48:36.936Z,98.20
2019-05-05T07:51:13.931Z,98.70
2019-05-05T07:53:45.063Z,96.90
2019-05-05T07:56:17.279Z,97.10
2019-05-05T07:58:48.523Z,97.40
2019-05-05T08:01:19.428Z,97.30
2019-05-05T08:03:50.471Z,97.30
2019-05-05T08:06:23.581Z,97.60
2019-05-05T08:08:54.671Z,96.60
2019-05-05T08:11:25.880Z,96.30
2019-05-05T08:13:56.767Z,96.80
2019-05-05T08:16:45.995Z,96.80
2019-05-05T08:19:36.724Z,96.50
2019-05-05T08:22:08.019Z,97.00
2019-05-05T08:25:04.074Z,97.60
2019-05-05T08:27:53.918Z,98.20
2019-05-05T08:30:47.527Z,99.20
2019-05-05T08:33:18.701Z,97.90
2019-05-05T08:35:50.693Z,98.50
2019-05-05T08:38:24.232Z,98.70
2019-05-05T08:40:55.551Z,97.30
2019-05-05T08:43:26.800Z,97.60
2019-05-05T08:45:57.735Z,96.10
2019-05-05T08:48:29.450Z,96.30
2019-05-05T08:51:00.355Z,95.00
2019-05-05T08:53:42.561Z,95.60
2019-05-05T08:56:04.232Z,95.70
2019-05-05T08:58:35.728Z,94.90
2019-05-05T09:01:06.676Z,94.80
2019-05-05T09:03:38.248Z,94.70
2019-05-05T09:06:09.412Z,94.40
2019-05-05T09:08:40.369Z,93.80
2019-05-05T09:11:13.831Z,94.00
2019-05-05T09:13:44.760Z,93.40
2019-05-05T09:16:16.299Z,93.80
2019-05-05T09:18:59.998Z,93.10
2019-05-05T09:21:31.148Z,92.70
2019-05-05T09:24:18.915Z,92.40
2019-05-05T09:26:58.491Z,92.70
2019-05-05T09:29:34.704Z,93.40
2019-05-05T09:32:07.486Z,93.60
2019-05-05T09:34:38.557Z,93.20
2019-05-05T09:37:09.631Z,93.30
2019-05-05T09:39:40.975Z,93.10
2019-05-05T09:42:11.904Z,91.80
2019-05-05T09:44:43.830Z,92.60
2019-05-05T09:47:15.196Z,93.30
2019-05-05T09:49:46.167Z,93.00
2019-05-05T09:52:17.427Z,93.60
2019-05-05T09:54:48.492Z,92.60
2019-05-05T09:57:19.760Z,93.20
2019-05-05T09:59:51.087Z,93.00
2019-05-05T10:02:23.828Z,94.70
2019-05-05T10:04:54.803Z,95.20
2019-05-05T10:07:26.111Z,95.30
2019-05-05T10:09:57.276Z,94.70
2019-05-05T10:12:28.353Z,94.80
2019-05-05T10:14:59.575Z,94.60
2019-05-05T10:17:30.847Z,95.20
2019-05-05T10:20:03.861Z,95.00
2019-05-05T10:22:35.529Z,94.30
2019-05-05T10:25:25.511Z,94.60
2019-05-05T10:27:57.414Z,94.40
2019-05-05T10:30:28.749Z,94.10
2019-05-05T10:33:00.095Z,94.60
2019-05-05T10:35:31.288Z,94.90
2019-05-05T10:38:02.921Z,93.10
2019-05-05T10:40:34.743Z,92.70
2019-05-05T10:43:06.059Z,91.20
2019-05-05T10:45:37.228Z,92.50
2019-05-05T10:48:08.527Z,92.90
2019-05-05T10:50:39.826Z,92.20
2019-05-05T10:53:13.498Z,91.60
2019-05-05T10:55:44.981Z,90.60
2019-05-05T10:58:16.208Z,90.70
2019-05-05T11:00:54.454Z,90.40
2019-05-05T11:03:26.000Z,91.80
2019-05-05T11:05:57.523Z,91.50
2019-05-05T11:08:30.809Z,91.70
2019-05-05T11:11:04.257Z,89.20
2019-05-05T11:13:35.735Z,91.00
2019-05-05T11:16:07.152Z,90.90
2019-05-05T11:18:38.488Z,88.90
2019-05-05T11:21:10.111Z,90.40
2019-05-05T11:23:41.160Z,90.20
2019-05-05T11:26:14.462Z,90.00
2019-05-05T11:28:46.817Z,90.00
2019-05-05T11:31:21.128Z,90.50
2019-05-05T11:34:20.730Z,90.00
2019-05-05T11:37:19.791Z,89.00
2019-05-05T11:39:50.996Z,88.70
2019-05-05T11:42:23.883Z,90.30
2019-05-05T11:44:55.138Z,90.60
2019-05-05T11:47:29.700Z,91.10
2019-05-05T11:50:01.127Z,90.80
2019-05-05T11:52:33.720Z,91.50
2019-05-05T11:55:11.463Z,91.80
2019-05-05T11:57:37.815Z,89.40
2019-05-05T12:00:08.897Z,90.20
2019-05-05T12:02:40.151Z,91.00
2019-05-05T12:05:13.990Z,91.80
2019-05-05T12:07:44.232Z,91.40
2019-05-05T12:10:34.514Z,92.10
2019-05-05T12:13:07.342Z,92.80
2019-05-05T12:15:38.532Z,92.30
2019-05-05T12:18:09.460Z,91.70
2019-05-05T12:20:40.937Z,91.80
2019-05-05T12:23:11.911Z,90.90
2019-05-05T12:26:07.396Z,91.20
2019-05-05T12:28:43.987Z,89.60
2019-05-05T12:31:22.124Z,91.00
2019-05-05T12:33:54.741Z,91.10
2019-05-05T12:36:26.239Z,90.40
2019-05-05T12:38:57.163Z,90.80
2019-05-05T12:41:28.363Z,90.10
2019-05-05T12:44:00.537Z,89.20
2019-05-05T12:46:44.603Z,89.00
2019-05-05T12:49:17.089Z,87.20
2019-05-05T12:51:48.400Z,89.10
2019-05-05T12:54:19.576Z,89.20
2019-05-05T12:56:50.790Z,89.80
2019-05-05T12:59:25.279Z,90.00
2019-05-05T13:01:56.644Z,90.60
2019-05-05T13:04:27.899Z,90.10
2019-05-05T13:06:59.444Z,90.40
2019-05-05T13:09:31.027Z,90.00
2019-05-05T13:12:02.023Z,90.10
2019-05-05T13:14:33.603Z,90.60
2019-05-05T13:17:05.250Z,90.70
2019-05-05T13:19:46.463Z,91.00
2019-05-05T13:22:33.827Z,91.40
2019-05-05T13:25:23.650Z,91.60
2019-05-05T13:27:57.327Z,91.90
2019-05-05T13:30:28.416Z,91.50
2019-05-05T13:32:59.827Z,91.40
2019-05-05T13:35:31.153Z,90.90
2019-05-05T13:38:04.027Z,91.10
2019-05-05T13:40:35.171Z,91.80
2019-05-05T13:43:07.648Z,91.20
2019-05-05T13:46:00.453Z,90.90
2019-05-05T13:48:33.368Z,90.40
2019-05-05T13:51:05.587Z,88.40
2019-05-05T13:53:39.067Z,86.00
2019-05-05T13:56:12.463Z,88.00
2019-05-05T13:58:43.814Z,86.70
2019-05-05T14:01:15.559Z,86.90
2019-05-05T14:03:46.823Z,87.60
2019-05-05T14:06:18.248Z,89.00
2019-05-05T14:08:49.507Z,89.10
2019-05-05T14:11:20.747Z,87.60
2019-05-05T14:13:51.907Z,89.00
2019-05-05T14:16:23.067Z,90.00
2019-05-05T14:18:54.247Z,88.70
2019-05-05T14:21:25.235Z,88.90
2019-05-05T14:24:19.124Z,90.40
2019-05-05T14:26:50.301Z,89.90
2019-05-05T14:29:39.426Z,90.60
2019-05-05T14:32:13.498Z,90.50
2019-05-05T14:34:48.760Z,89.20
2019-05-05T14:37:34.052Z,89.10
2019-05-05T14:40:07.515Z,88.90
2019-05-05T14:42:39.012Z,89.60
2019-05-05T14:45:12.229Z,89.90
2019-05-05T14:47:44.224Z,89.10
2019-05-05T14:50:16.704Z,91.50
2019-05-05T14:52:47.760Z,91.50
2019-05-05T14:55:18.848Z,91.90
2019-05-05T14:57:50.364Z,91.60
2019-05-05T15:00:24.217Z,91.50
2019-05-05T15:02:55.450Z,90.40
2019-05-05T15:05:41.199Z,90.00
2019-05-05T15:08:17.855Z,90.40
2019-05-05T15:11:14.320Z,90.60
2019-05-05T15:13:45.655Z,90.10
2019-05-05T15:16:16.648Z,86.90
2019-05-05T15:18:47.795Z,87.80
2019-05-05T15:21:18.963Z,87.70
2019-05-05T15:23:50.192Z,87.90
2019-05-05T15:26:21.361Z,89.20
2019-05-05T15:28:59.306Z,86.80
2019-05-05T15:31:25.112Z,88.60
2019-05-05T15:33:56.036Z,89.60
2019-05-05T15:36:29.673Z,90.00
2019-05-05T15:39:00.972Z,90.50
2019-05-05T15:41:34.329Z,88.90
2019-05-05T15:44:05.767Z,88.70
2019-05-05T15:46:36.956Z,89.90
2019-05-05T15:49:08.138Z,90.10
2019-05-05T15:51:39.079Z,88.00
2019-05-05T15:54:10.244Z,90.30
2019-05-05T15:56:41.452Z,90.20
2019-05-05T15:59:14.346Z,90.30
2019-05-05T16:01:45.447Z,90.30
2019-05-05T16:04:16.615Z,90.60
2019-05-05T16:06:48.039Z,90.50
2019-05-05T16:09:19.194Z,89.70
2019-05-05T16:11:50.353Z,88.90
2019-05-05T16:14:23.814Z,88.00
2019-05-05T16:17:14.431Z,87.40
2019-05-05T16:19:54.241Z,87.40
2019-05-05T16:22:47.479Z,84.50
2019-05-05T16:25:18.838Z,86.30
2019-05-05T16:27:50.032Z,88.10
2019-05-05T16:30:23.443Z,88.40
2019-05-05T16:32:55.248Z,89.00
2019-05-05T16:35:26.565Z,89.10
2019-05-05T16:37:57.744Z,90.30
2019-05-05T16:40:28.936Z,91.00
2019-05-05T16:43:01.479Z,90.90
2019-05-05T16:45:34.042Z,91.00
2019-05-05T16:48:05.852Z,91.40
2019-05-05T16:50:37.045Z,92.00
2019-05-05T16:53:08.011Z,92.30
2019-05-05T16:55:54.891Z,91.80
2019-05-05T16:58:26.379Z,91.80
2019-05-05T17:00:57.327Z,92.10
2019-05-05T17:03:28.559Z,92.20
2019-05-05T17:05:59.616Z,92.00
2019-05-05T17:08:31.088Z,92.60
2019-05-05T17:11:02.575Z,92.60
2019-05-05T17:13:44.579Z,92.60
2019-05-05T17:16:35.269Z,91.20
2019-05-05T17:19:14.011Z,91.10
2019-05-05T17:22:04.508Z,90.80
2019-05-05T17:24:38.635Z,90.60
2019-05-05T17:27:08.417Z,90.40
2019-05-05T17:29:39.349Z,90.10
2019-05-05T17:32:10.305Z,90.80
2019-05-05T17:34:41.652Z,90.30
2019-05-05T17:37:13.440Z,91.20
2019-05-05T17:39:51.224Z,91.50
2019-05-05T17:42:34.797Z,92.00
2019-05-05T17:45:16.123Z,91.80
2019-05-05T17:47:55.583Z,92.00
2019-05-05T17:50:45.600Z,92.30
2019-05-05T17:53:24.607Z,91.90
2019-05-05T17:55:56.853Z,92.20
2019-05-05T17:58:28.189Z,92.20
2019-05-05T18:01:00.856Z,92.60
2019-05-05T18:03:33.986Z,92.60
2019-05-05T18:06:23.623Z,92.70
2019-05-05T18:08:59.705Z,92.70
2019-05-05T18:11:48.135Z,93.00
2019-05-05T18:14:24.034Z,93.10
2019-05-05T18:16:55.396Z,93.00
2019-05-05T18:19:26.643Z,93.50
2019-05-05T18:21:57.583Z,93.50
2019-05-05T18:24:28.623Z,93.70
2019-05-05T18:26:59.900Z,94.60
2019-05-05T18:29:30.857Z,94.80
2019-05-05T18:32:04.210Z,94.80
2019-05-05T18:34:34.855Z,95.10
2019-05-05T18:37:06.010Z,95.10
2019-05-05T18:39:37.147Z,95.10
2019-05-05T18:42:13.998Z,94.90
2019-05-05T18:44:50.908Z,95.10
2019-05-05T18:47:22.155Z,95.20
2019-05-05T18:49:54.097Z,95.30
2019-05-05T18:52:25.304Z,95.30
2019-05-05T18:54:56.514Z,95.40
2019-05-05T18:57:27.667Z,95.50
2019-05-05T18:59:59.042Z,95.80
2019-05-05T19:02:45.076Z,95.80
2019-05-05T19:05:30.305Z,95.60
2019-05-05T19:08:24.470Z,95.70
2019-05-05T19:10:55.483Z,95.50
2019-05-05T19:13:26.727Z,95.30
2019-05-05T19:15:58.132Z,95.70
2019-05-05T19:18:29.220Z,96.00
2019-05-05T19:21:14.261Z,95.20
2019-05-05T19:23:45.674Z,95.60
2019-05-05T19:26:16.580Z,95.70
2019-05-05T19:28:50.282Z,95.70
2019-05-05T19:31:21.093Z,95.70
2019-05-05T19:33:55.686Z,96.20
2019-05-05T19:36:27.507Z,95.90
2019-05-05T19:38:59.415Z,96.10
2019-05-05T19:41:30.688Z,96.00
2019-05-05T19:44:04.706Z,96.00
2019-05-05T19:46:44.118Z,96.10
2019-05-05T19:49:16.991Z,96.10
2019-05-05T19:51:48.767Z,95.90
2019-05-05T19:54:19.927Z,96.20
2019-05-05T19:56:51.099Z,96.70
2019-05-05T19:59:22.347Z,96.30
2019-05-05T20:01:54.026Z,96.30
2019-05-05T20:04:25.316Z,96.30
2019-05-05T20:06:56.504Z,96.50
2019-05-05T20:09:27.544Z,96.70
2019-05-05T20:11:58.715Z,97.00
2019-05-05T20:14:29.951Z,96.90
2019-05-05T20:17:23.135Z,97.20
2019-05-05T20:19:54.733Z,97.60
2019-05-05T20:22:26.213Z,97.50
2019-05-05T20:24:57.465Z,97.10
2019-05-05T20:27:28.619Z,97.30
2019-05-05T20:30:00.009Z,97.20
2019-05-05T20:32:50.944Z,97.30
2019-05-05T20:35:41.826Z,97.10
2019-05-05T20:38:15.958Z,97.40
2019-05-05T20:41:06.635Z,97.40
2019-05-05T20:43:37.804Z,97.60
2019-05-05T20:46:10.099Z,97.50
2019-05-05T20:48:41.522Z,97.40
2019-05-05T20:51:13.784Z,97.40
2019-05-05T20:53:48.590Z,97.80
2019-05-05T20:56:20.190Z,97.70
2019-05-05T20:58:51.169Z,97.50
2019-05-05T21:01:24.631Z,97.30
2019-05-05T21:03:58.436Z,97.30
2019-05-05T21:06:29.647Z,97.40
2019-05-05T21:09:01.003Z,97.40
2019-05-05T21:11:33.995Z,97.70
2019-05-05T21:14:05.235Z,97.90
2019-05-05T21:16:37.555Z,98.00
2019-05-05T21:19:08.720Z,98.20
2019-05-05T21:21:41.875Z,98.00
2019-05-05T21:24:13.040Z,97.80
2019-05-05T21:26:48.014Z,97.80
2019-05-05T21:29:19.171Z,97.70
2019-05-05T21:31:50.317Z,97.70
2019-05-05T21:34:21.279Z,97.70
2019-05-05T21:36:54.011Z,97.70
2019-05-05T21:39:28.411Z,98.40
2019-05-05T21:42:01.392Z,98.20
2019-05-05T21:44:34.363Z,98.00
2019-05-05T21:47:05.700Z,98.20
2019-05-05T21:49:36.641Z,97.90
2019-05-05T21:52:17.980Z,97.90
2019-05-05T21:55:13.780Z,97.70
2019-05-05T21:58:04.369Z,98.00
2019-05-05T22:00:54.830Z,97.70
2019-05-05T22:03:38.149Z,97.70
2019-05-05T22:06:14.642Z,98.00
2019-05-05T22:08:46.037Z,98.00
2019-05-05T22:11:17.252Z,98.10
2019-05-05T22:13:48.579Z,97.70
2019-05-05T22:16:19.805Z,97.80
2019-05-05T22:18:51.607Z,98.20
2019-05-05T22:21:36.167Z,98.10
2019-05-05T22:24:18.485Z,98.10
2019-05-05T22:26:49.791Z,98.20
2019-05-05T22:29:20.979Z,98.00
2019-05-05T22:31:51.975Z,97.90
2019-05-05T22:34:24.206Z,98.10
2019-05-05T22:36:55.249Z,98.30
2019-05-05T22:39:26.613Z,98.20
2019-05-05T22:41:57.761Z,98.30
2019-05-05T22:44:28.983Z,98.70
2019-05-05T22:47:00.142Z,98.20
2019-05-05T22:49:31.315Z,98.70
2019-05-05T22:52:03.800Z,98.90
2019-05-05T22:54:34.973Z,98.90
2019-05-05T22:57:05.955Z,99.00
2019-05-05T22:59:36.923Z,99.00
2019-05-05T23:02:08.357Z,99.00
2019-05-05T23:04:48.464Z,98.90
2019-05-05T23:07:30.690Z,98.90
2019-05-05T23:10:04.581Z,99.10
2019-05-05T23:12:35.685Z,99.20
2019-05-05T23:15:07.572Z,99.20
2019-05-05T23:18:00.410Z,99.30
2019-05-05T23:21:20.959Z,99.30
2019-05-05T23:24:14.362Z,99.50
2019-05-05T23:26:45.924Z,99.80
2019-05-05T23:29:17.030Z,99.90
2019-05-05T23:31:48.019Z,99.90
2019-05-05T23:34:19.499Z,99.90
2019-05-05T23:36:50.728Z,99.90
2019-05-05T23:39:24.270Z,99.90
2019-05-05T23:41:55.880Z,99.90
2019-05-05T23:44:26.789Z,99.90
2019-05-05T23:46:58.023Z,99.90
2019-05-05T23:49:28.958Z,99.90
2019-05-05T23:51:59.875Z,99.90
2019-05-05T23:54:31.060Z,99.90
2019-05-05T23:57:04.552Z,99.90
2019-05-05T23:59:35.351Z,99.90
